KSKX

Taos Regional Airport

Taos, New Mexico, USA
METAR KSKX 181516Z AUTO 00000KT 10SM BKN010 OVC039 06/02 A3042 RMK AO2 $
Observed Flight Rules
Oct-18 @ 15:16 UTC (40 minutes ago) Marginal Visual Flight Rules
Visibility Clouds
10 miles
  • Broken at 1,000' AGL
  • Overcast at 3,900' AGL
Temperatures Readings
Current 6°C / 43°F
Dewpoint 2°C / 36°F
Humidity 76%
Altimeter 30.42" Hg
Pressure 1030 hPa
Elevation 2161
METAR KSKX 181516Z AUTO 00000KT 10SM BKN010 OVC039 06/02 A3042 RMK AO2 $
Observed Flight Rules
Oct-18 @ 15:16 UTC
(40 minutes ago)
MVFR
Clouds
  • Broken at 1,000' AGL
  • Overcast at 3,900' AGL
Temperature Dewpoint
6°C / 43°F 2°C / 36°F
Humidity Altimeter Pressure
76% 30.42" Hg 1030 hPa